sensor_id;sensor_type;location;lat;lon;timestamp;temperature;humidity
2453;DHT22;63678;47.994;7.854;2022-12-13T00:00:46;-5.80;99.90
2453;DHT22;63678;47.994;7.854;2022-12-13T00:03:18;-5.60;99.90
2453;DHT22;63678;47.994;7.854;2022-12-13T00:05:51;-5.70;99.90
2453;DHT22;63678;47.994;7.854;2022-12-13T00:08:25;-5.50;99.90
2453;DHT22;63678;47.994;7.854;2022-12-13T00:10:59;-5.80;99.90
2453;DHT22;63678;47.994;7.854;2022-12-13T00:13:35;-5.80;99.90
2453;DHT22;63678;47.994;7.854;2022-12-13T00:16:13;-5.80;99.90
2453;DHT22;63678;47.994;7.854;2022-12-13T00:18:57;-6.00;99.90
2453;DHT22;63678;47.994;7.854;2022-12-13T00:21:32;-6.00;99.90
2453;DHT22;63678;47.994;7.854;2022-12-13T00:24:05;-6.00;99.90
2453;DHT22;63678;47.994;7.854;2022-12-13T00:26:38;-5.60;99.90
2453;DHT22;63678;47.994;7.854;2022-12-13T00:29:11;-5.70;99.90
2453;DHT22;63678;47.994;7.854;2022-12-13T00:31:44;-5.50;99.90
2453;DHT22;63678;47.994;7.854;2022-12-13T00:34:32;-5.50;99.90
2453;DHT22;63678;47.994;7.854;2022-12-13T00:37:05;-5.10;99.90
2453;DHT22;63678;47.994;7.854;2022-12-13T00:39:37;-5.00;99.90
2453;DHT22;63678;47.994;7.854;2022-12-13T00:42:10;-4.80;99.90
2453;DHT22;63678;47.994;7.854;2022-12-13T00:44:43;-4.80;99.90
2453;DHT22;63678;47.994;7.854;2022-12-13T00:47:15;-4.70;99.90
2453;DHT22;63678;47.994;7.854;2022-12-13T00:49:50;-4.60;99.90
2453;DHT22;63678;47.994;7.854;2022-12-13T00:52:22;-4.60;99.90
2453;DHT22;63678;47.994;7.854;2022-12-13T00:54:55;-4.60;99.90
2453;DHT22;63678;47.994;7.854;2022-12-13T00:57:27;-4.40;99.90
2453;DHT22;63678;47.994;7.854;2022-12-13T00:59:59;-4.50;99.90
2453;DHT22;63678;47.994;7.854;2022-12-13T01:02:32;-4.50;99.90
2453;DHT22;63678;47.994;7.854;2022-12-13T01:05:05;-4.40;99.90
2453;DHT22;63678;47.994;7.854;2022-12-13T01:07:38;-4.30;99.90
2453;DHT22;63678;47.994;7.854;2022-12-13T01:10:15;-4.20;99.90
2453;DHT22;63678;47.994;7.854;2022-12-13T01:12:47;-4.40;99.90
2453;DHT22;63678;47.994;7.854;2022-12-13T01:15:19;-4.40;99.90
2453;DHT22;63678;47.994;7.854;2022-12-13T01:17:52;-4.40;99.90
2453;DHT22;63678;47.994;7.854;2022-12-13T01:20:24;-4.50;99.90
2453;DHT22;63678;47.994;7.854;2022-12-13T01:23:17;-4.60;99.90
2453;DHT22;63678;47.994;7.854;2022-12-13T01:25:50;-4.50;99.90
2453;DHT22;63678;47.994;7.854;2022-12-13T01:28:23;-4.70;99.90
2453;DHT22;63678;47.994;7.854;2022-12-13T01:31:02;-4.70;99.90
2453;DHT22;63678;47.994;7.854;2022-12-13T01:33:37;-4.60;99.90
2453;DHT22;63678;47.994;7.854;2022-12-13T01:36:30;-4.70;99.90
2453;DHT22;63678;47.994;7.854;2022-12-13T01:39:11;-4.60;99.90
2453;DHT22;63678;47.994;7.854;2022-12-13T01:41:52;-4.70;99.90
2453;DHT22;63678;47.994;7.854;2022-12-13T01:48:18;-4.50;99.90
2453;DHT22;63678;47.994;7.854;2022-12-13T01:51:21;-4.50;99.90
2453;DHT22;63678;47.994;7.854;2022-12-13T01:54:08;-4.50;99.90
2453;DHT22;63678;47.994;7.854;2022-12-13T01:56:53;-4.60;99.90
2453;DHT22;63678;47.994;7.854;2022-12-13T01:59:38;-4.50;99.90
2453;DHT22;63678;47.994;7.854;2022-12-13T02:02:13;-4.40;99.90
2453;DHT22;63678;47.994;7.854;2022-12-13T02:07:41;-4.40;99.90
2453;DHT22;63678;47.994;7.854;2022-12-13T02:10:14;-4.40;99.90
2453;DHT22;63678;47.994;7.854;2022-12-13T02:12:47;-4.50;99.90
2453;DHT22;63678;47.994;7.854;2022-12-13T02:15:20;-4.50;99.90
2453;DHT22;63678;47.994;7.854;2022-12-13T02:27:25;-4.40;99.90
2453;DHT22;63678;47.994;7.854;2022-12-13T02:34:23;-4.30;99.90
2453;DHT22;63678;47.994;7.854;2022-12-13T02:37:06;-4.30;99.90
2453;DHT22;63678;47.994;7.854;2022-12-13T02:43:02;-4.30;99.90
2453;DHT22;63678;47.994;7.854;2022-12-13T02:45:44;-4.20;99.90
2453;DHT22;63678;47.994;7.854;2022-12-13T02:48:36;-4.20;99.90
2453;DHT22;63678;47.994;7.854;2022-12-13T02:51:11;-4.30;99.90
2453;DHT22;63678;47.994;7.854;2022-12-13T02:54:04;-4.30;99.90
2453;DHT22;63678;47.994;7.854;2022-12-13T02:56:37;-4.10;99.90
2453;DHT22;63678;47.994;7.854;2022-12-13T02:59:11;-4.00;99.90
2453;DHT22;63678;47.994;7.854;2022-12-13T03:08:08;-3.90;99.90
2453;DHT22;63678;47.994;7.854;2022-12-13T03:11:03;-3.90;99.90
2453;DHT22;63678;47.994;7.854;2022-12-13T03:16:50;-3.90;99.90
2453;DHT22;63678;47.994;7.854;2022-12-13T03:19:24;-4.00;99.90
2453;DHT22;63678;47.994;7.854;2022-12-13T03:21:57;-4.00;99.90
2453;DHT22;63678;47.994;7.854;2022-12-13T03:24:29;-4.00;99.90
2453;DHT22;63678;47.994;7.854;2022-12-13T03:27:01;-4.40;99.90
2453;DHT22;63678;47.994;7.854;2022-12-13T03:29:34;-4.40;99.90
2453;DHT22;63678;47.994;7.854;2022-12-13T03:32:06;-4.20;99.90
2453;DHT22;63678;47.994;7.854;2022-12-13T03:34:38;-4.30;99.90
2453;DHT22;63678;47.994;7.854;2022-12-13T03:37:31;-4.20;99.90
2453;DHT22;63678;47.994;7.854;2022-12-13T03:40:04;-4.20;99.90
2453;DHT22;63678;47.994;7.854;2022-12-13T03:42:40;-4.20;99.90
2453;DHT22;63678;47.994;7.854;2022-12-13T03:45:13;-4.20;99.90
2453;DHT22;63678;47.994;7.854;2022-12-13T03:47:46;-4.20;99.90
2453;DHT22;63678;47.994;7.854;2022-12-13T03:50:18;-4.20;99.90
2453;DHT22;63678;47.994;7.854;2022-12-13T03:52:59;-4.50;99.90
2453;DHT22;63678;47.994;7.854;2022-12-13T03:55:32;-4.50;99.90
2453;DHT22;63678;47.994;7.854;2022-12-13T03:58:05;-4.50;99.90
2453;DHT22;63678;47.994;7.854;2022-12-13T04:00:39;-4.50;99.90
2453;DHT22;63678;47.994;7.854;2022-12-13T04:03:11;-4.30;99.90
2453;DHT22;63678;47.994;7.854;2022-12-13T04:05:44;-4.40;99.90
2453;DHT22;63678;47.994;7.854;2022-12-13T04:08:16;-4.40;99.90
2453;DHT22;63678;47.994;7.854;2022-12-13T04:10:53;-4.40;99.90
2453;DHT22;63678;47.994;7.854;2022-12-13T04:16:04;-4.20;99.90
2453;DHT22;63678;47.994;7.854;2022-12-13T04:18:37;-4.20;99.90
2453;DHT22;63678;47.994;7.854;2022-12-13T04:21:09;-4.20;99.90
2453;DHT22;63678;47.994;7.854;2022-12-13T04:23:41;-4.30;99.90
2453;DHT22;63678;47.994;7.854;2022-12-13T04:26:14;-4.30;99.90
2453;DHT22;63678;47.994;7.854;2022-12-13T04:28:46;-4.30;99.90
2453;DHT22;63678;47.994;7.854;2022-12-13T04:31:25;-4.40;99.90
2453;DHT22;63678;47.994;7.854;2022-12-13T04:33:57;-4.40;99.90
2453;DHT22;63678;47.994;7.854;2022-12-13T04:36:30;-4.20;99.90
2453;DHT22;63678;47.994;7.854;2022-12-13T04:39:04;-4.40;99.90
2453;DHT22;63678;47.994;7.854;2022-12-13T04:41:53;-4.40;99.90
2453;DHT22;63678;47.994;7.854;2022-12-13T04:44:26;-4.40;99.90
2453;DHT22;63678;47.994;7.854;2022-12-13T04:47:04;-4.40;99.90
2453;DHT22;63678;47.994;7.854;2022-12-13T04:49:37;-4.30;99.90
2453;DHT22;63678;47.994;7.854;2022-12-13T04:52:09;-4.40;99.90
2453;DHT22;63678;47.994;7.854;2022-12-13T04:54:42;-4.40;99.90
2453;DHT22;63678;47.994;7.854;2022-12-13T04:57:14;-4.40;99.90
2453;DHT22;63678;47.994;7.854;2022-12-13T04:59:46;-4.40;99.90
2453;DHT22;63678;47.994;7.854;2022-12-13T05:02:19;-4.30;99.90
2453;DHT22;63678;47.994;7.854;2022-12-13T05:04:55;-4.30;99.90
2453;DHT22;63678;47.994;7.854;2022-12-13T05:07:27;-4.30;99.90
2453;DHT22;63678;47.994;7.854;2022-12-13T05:09:59;-4.50;99.90
2453;DHT22;63678;47.994;7.854;2022-12-13T05:12:32;-4.60;99.90
2453;DHT22;63678;47.994;7.854;2022-12-13T05:15:05;-4.60;99.90
2453;DHT22;63678;47.994;7.854;2022-12-13T05:17:37;-4.90;99.90
2453;DHT22;63678;47.994;7.854;2022-12-13T05:20:10;-4.70;99.90
2453;DHT22;63678;47.994;7.854;2022-12-13T05:22:42;-4.60;99.90
2453;DHT22;63678;47.994;7.854;2022-12-13T05:25:15;-4.70;99.90
2453;DHT22;63678;47.994;7.854;2022-12-13T05:27:48;-4.80;99.90
2453;DHT22;63678;47.994;7.854;2022-12-13T05:30:27;-4.70;99.90
2453;DHT22;63678;47.994;7.854;2022-12-13T05:32:59;-4.80;99.90
2453;DHT22;63678;47.994;7.854;2022-12-13T05:35:32;-4.70;99.90
2453;DHT22;63678;47.994;7.854;2022-12-13T05:38:04;-4.70;99.90
2453;DHT22;63678;47.994;7.854;2022-12-13T05:40:38;-4.60;99.90
2453;DHT22;63678;47.994;7.854;2022-12-13T05:43:11;-4.50;99.90
2453;DHT22;63678;47.994;7.854;2022-12-13T05:45:53;-4.60;99.90
2453;DHT22;63678;47.994;7.854;2022-12-13T05:48:26;-4.60;99.90
2453;DHT22;63678;47.994;7.854;2022-12-13T05:53:42;-4.70;99.90
2453;DHT22;63678;47.994;7.854;2022-12-13T05:56:18;-5.10;99.90
2453;DHT22;63678;47.994;7.854;2022-12-13T05:58:53;-5.10;99.90
2453;DHT22;63678;47.994;7.854;2022-12-13T06:03:58;-5.00;99.90
2453;DHT22;63678;47.994;7.854;2022-12-13T06:06:31;-4.90;99.90
2453;DHT22;63678;47.994;7.854;2022-12-13T06:09:03;-5.00;99.90
2453;DHT22;63678;47.994;7.854;2022-12-13T06:11:35;-4.90;99.90
2453;DHT22;63678;47.994;7.854;2022-12-13T06:14:17;-5.20;99.90
2453;DHT22;63678;47.994;7.854;2022-12-13T06:16:54;-5.10;99.90
2453;DHT22;63678;47.994;7.854;2022-12-13T06:19:26;-5.10;99.90
2453;DHT22;63678;47.994;7.854;2022-12-13T06:21:58;-4.90;99.90
2453;DHT22;63678;47.994;7.854;2022-12-13T06:24:31;-4.90;99.90
2453;DHT22;63678;47.994;7.854;2022-12-13T06:27:03;-4.80;99.90
2453;DHT22;63678;47.994;7.854;2022-12-13T06:29:36;-4.70;99.90
2453;DHT22;63678;47.994;7.854;2022-12-13T06:32:09;-4.70;99.90
2453;DHT22;63678;47.994;7.854;2022-12-13T06:34:41;-4.70;99.90
2453;DHT22;63678;47.994;7.854;2022-12-13T06:39:46;-5.00;99.90
2453;DHT22;63678;47.994;7.854;2022-12-13T06:42:19;-4.70;99.90
2453;DHT22;63678;47.994;7.854;2022-12-13T06:44:53;-4.90;99.90
2453;DHT22;63678;47.994;7.854;2022-12-13T06:47:27;-4.70;99.90
2453;DHT22;63678;47.994;7.854;2022-12-13T06:50:04;-4.60;99.90
2453;DHT22;63678;47.994;7.854;2022-12-13T06:52:37;-4.50;99.90
2453;DHT22;63678;47.994;7.854;2022-12-13T06:55:10;-4.50;99.90
2453;DHT22;63678;47.994;7.854;2022-12-13T06:57:42;-4.60;99.90
2453;DHT22;63678;47.994;7.854;2022-12-13T07:00:15;-4.30;99.90
2453;DHT22;63678;47.994;7.854;2022-12-13T07:02:54;-4.30;99.90
2453;DHT22;63678;47.994;7.854;2022-12-13T07:05:27;-4.20;99.90
2453;DHT22;63678;47.994;7.854;2022-12-13T07:07:59;-4.20;99.90
2453;DHT22;63678;47.994;7.854;2022-12-13T07:10:32;-4.10;99.90
2453;DHT22;63678;47.994;7.854;2022-12-13T07:13:04;-4.00;99.90
2453;DHT22;63678;47.994;7.854;2022-12-13T07:15:37;-3.90;99.90
2453;DHT22;63678;47.994;7.854;2022-12-13T07:18:09;-4.00;99.90
2453;DHT22;63678;47.994;7.854;2022-12-13T07:20:42;-4.00;99.90
2453;DHT22;63678;47.994;7.854;2022-12-13T07:23:15;-4.10;99.90
2453;DHT22;63678;47.994;7.854;2022-12-13T07:25:55;-4.20;99.90
2453;DHT22;63678;47.994;7.854;2022-12-13T07:28:27;-4.40;99.90
2453;DHT22;63678;47.994;7.854;2022-12-13T07:31:00;-4.50;99.90
2453;DHT22;63678;47.994;7.854;2022-12-13T07:33:34;-4.30;99.90
2453;DHT22;63678;47.994;7.854;2022-12-13T07:36:11;-4.20;99.90
2453;DHT22;63678;47.994;7.854;2022-12-13T07:38:53;-4.20;99.90
2453;DHT22;63678;47.994;7.854;2022-12-13T07:41:26;-4.20;99.90
2453;DHT22;63678;47.994;7.854;2022-12-13T07:43:59;-4.30;99.90
2453;DHT22;63678;47.994;7.854;2022-12-13T07:46:31;0.50;99.90
2453;DHT22;63678;47.994;7.854;2022-12-13T07:49:05;-3.10;99.90
2453;DHT22;63678;47.994;7.854;2022-12-13T07:51:37;-3.20;99.90
2453;DHT22;63678;47.994;7.854;2022-12-13T07:54:10;-3.60;99.90
2453;DHT22;63678;47.994;7.854;2022-12-13T07:56:42;-4.10;99.90
2453;DHT22;63678;47.994;7.854;2022-12-13T07:59:14;-4.10;99.90
2453;DHT22;63678;47.994;7.854;2022-12-13T08:01:59;-4.00;99.90
2453;DHT22;63678;47.994;7.854;2022-12-13T08:04:33;-3.90;99.90
2453;DHT22;63678;47.994;7.854;2022-12-13T08:07:09;-3.90;99.90
2453;DHT22;63678;47.994;7.854;2022-12-13T08:09:42;-3.90;99.90
2453;DHT22;63678;47.994;7.854;2022-12-13T08:12:22;-3.90;99.90
2453;DHT22;63678;47.994;7.854;2022-12-13T08:14:54;-4.00;99.90
2453;DHT22;63678;47.994;7.854;2022-12-13T08:17:27;-4.10;99.90
2453;DHT22;63678;47.994;7.854;2022-12-13T08:20:03;-4.10;99.90
2453;DHT22;63678;47.994;7.854;2022-12-13T08:22:36;-3.90;99.90
2453;DHT22;63678;47.994;7.854;2022-12-13T08:25:09;-3.80;99.90
2453;DHT22;63678;47.994;7.854;2022-12-13T08:27:41;-3.90;99.90
2453;DHT22;63678;47.994;7.854;2022-12-13T08:30:13;-3.90;99.90
2453;DHT22;63678;47.994;7.854;2022-12-13T08:32:54;-4.10;99.90
2453;DHT22;63678;47.994;7.854;2022-12-13T08:35:27;-4.10;99.90
2453;DHT22;63678;47.994;7.854;2022-12-13T08:38:05;-4.20;99.90
2453;DHT22;63678;47.994;7.854;2022-12-13T08:40:37;-3.90;99.90
2453;DHT22;63678;47.994;7.854;2022-12-13T08:43:24;-4.00;99.90
2453;DHT22;63678;47.994;7.854;2022-12-13T08:48:32;-3.60;99.90
2453;DHT22;63678;47.994;7.854;2022-12-13T08:51:07;-3.60;99.90
2453;DHT22;63678;47.994;7.854;2022-12-13T08:53:57;-3.80;99.90
2453;DHT22;63678;47.994;7.854;2022-12-13T08:56:42;-4.00;99.90
2453;DHT22;63678;47.994;7.854;2022-12-13T09:01:50;-3.60;99.90
2453;DHT22;63678;47.994;7.854;2022-12-13T09:04:25;-3.40;99.90
2453;DHT22;63678;47.994;7.854;2022-12-13T09:07:02;-3.40;99.90
2453;DHT22;63678;47.994;7.854;2022-12-13T09:09:35;-3.00;99.90
2453;DHT22;63678;47.994;7.854;2022-12-13T09:12:08;-2.90;99.90
2453;DHT22;63678;47.994;7.854;2022-12-13T09:14:41;-2.70;99.90
2453;DHT22;63678;47.994;7.854;2022-12-13T09:19:55;-2.80;99.90
2453;DHT22;63678;47.994;7.854;2022-12-13T09:22:29;-2.80;99.90
2453;DHT22;63678;47.994;7.854;2022-12-13T09:25:05;-2.60;99.90
2453;DHT22;63678;47.994;7.854;2022-12-13T09:27:46;-2.60;99.90
2453;DHT22;63678;47.994;7.854;2022-12-13T09:30:40;-3.00;99.90
2453;DHT22;63678;47.994;7.854;2022-12-13T09:36:03;-2.70;99.90
2453;DHT22;63678;47.994;7.854;2022-12-13T09:38:39;-2.60;99.90
2453;DHT22;63678;47.994;7.854;2022-12-13T09:41:22;-2.50;99.90
2453;DHT22;63678;47.994;7.854;2022-12-13T09:44:15;-2.00;99.90
2453;DHT22;63678;47.994;7.854;2022-12-13T09:47:12;-1.90;99.90
2453;DHT22;63678;47.994;7.854;2022-12-13T09:49:58;-1.60;99.90
2453;DHT22;63678;47.994;7.854;2022-12-13T09:52:38;-1.60;99.90
2453;DHT22;63678;47.994;7.854;2022-12-13T09:55:22;-1.60;99.90
2453;DHT22;63678;47.994;7.854;2022-12-13T09:58:07;-0.90;99.90
2453;DHT22;63678;47.994;7.854;2022-12-13T10:00:47;-0.60;99.90
2453;DHT22;63678;47.994;7.854;2022-12-13T10:03:21;-0.40;99.90
2453;DHT22;63678;47.994;7.854;2022-12-13T10:05:58;-0.60;99.90
2453;DHT22;63678;47.994;7.854;2022-12-13T10:08:46;-0.50;99.90
2453;DHT22;63678;47.994;7.854;2022-12-13T10:11:28;-0.80;99.90
2453;DHT22;63678;47.994;7.854;2022-12-13T10:14:27;-0.60;99.90
2453;DHT22;63678;47.994;7.854;2022-12-13T10:17:08;-0.50;99.90
2453;DHT22;63678;47.994;7.854;2022-12-13T10:19:43;-0.90;99.90
2453;DHT22;63678;47.994;7.854;2022-12-13T10:22:19;-1.20;99.90
2453;DHT22;63678;47.994;7.854;2022-12-13T10:24:57;-1.30;99.90
2453;DHT22;63678;47.994;7.854;2022-12-13T10:32:59;-1.20;99.90
2453;DHT22;63678;47.994;7.854;2022-12-13T10:35:35;-0.80;99.90
2453;DHT22;63678;47.994;7.854;2022-12-13T10:40:47;-0.70;99.90
2453;DHT22;63678;47.994;7.854;2022-12-13T10:43:22;-0.70;99.90
2453;DHT22;63678;47.994;7.854;2022-12-13T10:46:01;-0.70;99.90
2453;DHT22;63678;47.994;7.854;2022-12-13T10:51:21;-1.20;99.90
2453;DHT22;63678;47.994;7.854;2022-12-13T10:53:56;-1.20;99.90
2453;DHT22;63678;47.994;7.854;2022-12-13T10:56:54;-1.20;99.90
2453;DHT22;63678;47.994;7.854;2022-12-13T10:59:33;-1.20;99.90
2453;DHT22;63678;47.994;7.854;2022-12-13T11:02:37;-1.50;99.90
2453;DHT22;63678;47.994;7.854;2022-12-13T11:08:22;-2.00;99.90
2453;DHT22;63678;47.994;7.854;2022-12-13T11:11:07;-2.00;99.90
2453;DHT22;63678;47.994;7.854;2022-12-13T11:13:52;-2.10;99.90
2453;DHT22;63678;47.994;7.854;2022-12-13T11:16:33;-1.90;99.90
2453;DHT22;63678;47.994;7.854;2022-12-13T11:21:51;-1.70;99.90
2453;DHT22;63678;47.994;7.854;2022-12-13T11:24:34;-1.80;99.90
2453;DHT22;63678;47.994;7.854;2022-12-13T11:27:27;-1.90;99.90
2453;DHT22;63678;47.994;7.854;2022-12-13T11:39:31;-1.40;99.90
2453;DHT22;63678;47.994;7.854;2022-12-13T11:42:24;-1.30;99.90
2453;DHT22;63678;47.994;7.854;2022-12-13T11:45:46;-1.10;99.90
2453;DHT22;63678;47.994;7.854;2022-12-13T11:50:50;-1.40;99.90
2453;DHT22;63678;47.994;7.854;2022-12-13T11:53:53;-1.40;99.90
2453;DHT22;63678;47.994;7.854;2022-12-13T11:56:43;-1.10;99.90
2453;DHT22;63678;47.994;7.854;2022-12-13T11:59:46;-0.70;99.90
2453;DHT22;63678;47.994;7.854;2022-12-13T12:02:27;-0.90;99.90
2453;DHT22;63678;47.994;7.854;2022-12-13T12:05:05;-1.60;99.90
2453;DHT22;63678;47.994;7.854;2022-12-13T12:07:53;-2.00;99.90
2453;DHT22;63678;47.994;7.854;2022-12-13T12:10:50;-2.40;99.90
2453;DHT22;63678;47.994;7.854;2022-12-13T12:13:41;-2.30;99.90
2453;DHT22;63678;47.994;7.854;2022-12-13T12:16:39;-2.30;99.90
2453;DHT22;63678;47.994;7.854;2022-12-13T12:19:17;-2.20;99.90
2453;DHT22;63678;47.994;7.854;2022-12-13T12:28:46;-2.20;99.90
2453;DHT22;63678;47.994;7.854;2022-12-13T12:31:55;-2.20;99.90
2453;DHT22;63678;47.994;7.854;2022-12-13T12:34:35;-2.20;99.90
2453;DHT22;63678;47.994;7.854;2022-12-13T12:43:36;-2.10;99.90
2453;DHT22;63678;47.994;7.854;2022-12-13T12:46:33;-2.10;99.90
2453;DHT22;63678;47.994;7.854;2022-12-13T12:59:15;-2.00;99.90
2453;DHT22;63678;47.994;7.854;2022-12-13T13:02:17;-2.20;99.90
2453;DHT22;63678;47.994;7.854;2022-12-13T13:05:00;-1.90;99.90
2453;DHT22;63678;47.994;7.854;2022-12-13T13:07:47;-2.40;99.90
2453;DHT22;63678;47.994;7.854;2022-12-13T13:10:23;-2.10;99.90
2453;DHT22;63678;47.994;7.854;2022-12-13T13:12:58;-2.10;99.90
2453;DHT22;63678;47.994;7.854;2022-12-13T13:15:53;-2.00;99.90
2453;DHT22;63678;47.994;7.854;2022-12-13T13:18:52;-1.80;99.90
2453;DHT22;63678;47.994;7.854;2022-12-13T13:21:32;-1.70;99.90
2453;DHT22;63678;47.994;7.854;2022-12-13T13:29:40;-1.60;99.90
2453;DHT22;63678;47.994;7.854;2022-12-13T13:38:26;-1.30;99.90
2453;DHT22;63678;47.994;7.854;2022-12-13T13:41:37;-1.30;99.90
2453;DHT22;63678;47.994;7.854;2022-12-13T13:44:32;-1.10;99.90
2453;DHT22;63678;47.994;7.854;2022-12-13T13:58:21;-1.20;99.90
2453;DHT22;63678;47.994;7.854;2022-12-13T14:20:32;-1.60;99.90
2453;DHT22;63678;47.994;7.854;2022-12-13T14:23:40;-1.60;99.90
2453;DHT22;63678;47.994;7.854;2022-12-13T14:29:52;-1.50;99.90
2453;DHT22;63678;47.994;7.854;2022-12-13T14:32:32;-1.60;99.90
2453;DHT22;63678;47.994;7.854;2022-12-13T14:35:24;-1.60;99.90
2453;DHT22;63678;47.994;7.854;2022-12-13T14:38:05;-1.50;99.90
2453;DHT22;63678;47.994;7.854;2022-12-13T14:40:57;-1.50;99.90
2453;DHT22;63678;47.994;7.854;2022-12-13T14:43:33;-1.50;99.90
2453;DHT22;63678;47.994;7.854;2022-12-13T14:46:06;-1.50;99.90
2453;DHT22;63678;47.994;7.854;2022-12-13T14:48:52;-1.60;99.90
2453;DHT22;63678;47.994;7.854;2022-12-13T14:51:31;-1.60;99.90
2453;DHT22;63678;47.994;7.854;2022-12-13T14:54:06;-1.60;99.90
2453;DHT22;63678;47.994;7.854;2022-12-13T14:56:57;-1.50;99.90
2453;DHT22;63678;47.994;7.854;2022-12-13T14:59:33;-0.90;99.90
2453;DHT22;63678;47.994;7.854;2022-12-13T15:02:13;-1.50;99.90
2453;DHT22;63678;47.994;7.854;2022-12-13T15:04:47;-1.70;99.90
2453;DHT22;63678;47.994;7.854;2022-12-13T15:07:29;-1.70;99.90
2453;DHT22;63678;47.994;7.854;2022-12-13T15:12:54;-1.60;99.90
2453;DHT22;63678;47.994;7.854;2022-12-13T15:15:30;-1.70;99.90
2453;DHT22;63678;47.994;7.854;2022-12-13T15:18:19;-1.70;99.90
2453;DHT22;63678;47.994;7.854;2022-12-13T15:20:58;-1.70;99.90
2453;DHT22;63678;47.994;7.854;2022-12-13T15:23:38;-1.70;99.90
2453;DHT22;63678;47.994;7.854;2022-12-13T15:26:25;-1.80;99.90
2453;DHT22;63678;47.994;7.854;2022-12-13T15:29:03;-1.90;99.90
2453;DHT22;63678;47.994;7.854;2022-12-13T15:37:13;-1.90;99.90
2453;DHT22;63678;47.994;7.854;2022-12-13T15:40:06;-1.70;99.90
2453;DHT22;63678;47.994;7.854;2022-12-13T15:42:43;-1.70;99.90
2453;DHT22;63678;47.994;7.854;2022-12-13T15:45:24;-1.70;99.90
2453;DHT22;63678;47.994;7.854;2022-12-13T15:48:05;-1.80;99.90
2453;DHT22;63678;47.994;7.854;2022-12-13T15:50:38;-1.90;99.90
2453;DHT22;63678;47.994;7.854;2022-12-13T15:53:26;-1.90;99.90
2453;DHT22;63678;47.994;7.854;2022-12-13T15:56:00;-2.00;99.90
2453;DHT22;63678;47.994;7.854;2022-12-13T15:58:40;-1.90;99.90
2453;DHT22;63678;47.994;7.854;2022-12-13T16:01:33;-1.90;99.90
2453;DHT22;63678;47.994;7.854;2022-12-13T16:06:39;-1.90;99.90
2453;DHT22;63678;47.994;7.854;2022-12-13T16:09:16;-1.90;99.90
2453;DHT22;63678;47.994;7.854;2022-12-13T16:11:59;-1.70;99.90
2453;DHT22;63678;47.994;7.854;2022-12-13T16:14:40;-1.60;99.90
2453;DHT22;63678;47.994;7.854;2022-12-13T16:17:25;-1.60;99.90
2453;DHT22;63678;47.994;7.854;2022-12-13T16:19:59;-1.60;99.90
2453;DHT22;63678;47.994;7.854;2022-12-13T16:22:41;-1.60;99.90
2453;DHT22;63678;47.994;7.854;2022-12-13T16:25:18;-1.60;99.90
2453;DHT22;63678;47.994;7.854;2022-12-13T16:27:50;-1.50;99.90
2453;DHT22;63678;47.994;7.854;2022-12-13T16:30:25;-1.60;99.90
2453;DHT22;63678;47.994;7.854;2022-12-13T16:35:53;-1.70;99.90
2453;DHT22;63678;47.994;7.854;2022-12-13T16:41:04;-1.70;99.90
2453;DHT22;63678;47.994;7.854;2022-12-13T16:46:29;-1.80;99.90
2453;DHT22;63678;47.994;7.854;2022-12-13T16:49:27;-1.70;99.90
2453;DHT22;63678;47.994;7.854;2022-12-13T16:52:00;-1.60;99.90
2453;DHT22;63678;47.994;7.854;2022-12-13T16:54:37;-1.50;99.90
2453;DHT22;63678;47.994;7.854;2022-12-13T16:57:10;-1.40;99.90
2453;DHT22;63678;47.994;7.854;2022-12-13T16:59:42;-1.40;99.90
2453;DHT22;63678;47.994;7.854;2022-12-13T17:02:17;-1.30;99.90
2453;DHT22;63678;47.994;7.854;2022-12-13T17:04:50;-1.30;99.90
2453;DHT22;63678;47.994;7.854;2022-12-13T17:07:22;-1.30;99.90
2453;DHT22;63678;47.994;7.854;2022-12-13T17:09:55;-1.30;99.90
2453;DHT22;63678;47.994;7.854;2022-12-13T17:12:27;-1.20;99.90
2453;DHT22;63678;47.994;7.854;2022-12-13T17:17:32;-1.20;99.90
2453;DHT22;63678;47.994;7.854;2022-12-13T17:20:05;-1.30;99.90
2453;DHT22;63678;47.994;7.854;2022-12-13T17:25:13;-1.40;99.90
2453;DHT22;63678;47.994;7.854;2022-12-13T17:27:45;-1.40;99.90
2453;DHT22;63678;47.994;7.854;2022-12-13T17:30:18;-1.60;99.90
2453;DHT22;63678;47.994;7.854;2022-12-13T17:32:51;-1.60;99.90
2453;DHT22;63678;47.994;7.854;2022-12-13T17:35:23;-1.50;99.90
2453;DHT22;63678;47.994;7.854;2022-12-13T17:37:57;-1.50;99.90
2453;DHT22;63678;47.994;7.854;2022-12-13T17:40:29;-1.50;99.90
2453;DHT22;63678;47.994;7.854;2022-12-13T17:43:02;-1.40;99.90
2453;DHT22;63678;47.994;7.854;2022-12-13T17:45:34;-1.40;99.90
2453;DHT22;63678;47.994;7.854;2022-12-13T17:48:06;-1.40;99.90
2453;DHT22;63678;47.994;7.854;2022-12-13T17:50:39;-1.30;99.90
2453;DHT22;63678;47.994;7.854;2022-12-13T17:53:11;-1.30;99.90
2453;DHT22;63678;47.994;7.854;2022-12-13T17:55:43;-1.40;99.90
2453;DHT22;63678;47.994;7.854;2022-12-13T17:58:16;-1.40;99.90
2453;DHT22;63678;47.994;7.854;2022-12-13T18:00:48;-1.30;99.90
2453;DHT22;63678;47.994;7.854;2022-12-13T18:03:20;-1.30;99.90
2453;DHT22;63678;47.994;7.854;2022-12-13T18:05:57;-1.20;99.90
2453;DHT22;63678;47.994;7.854;2022-12-13T18:08:33;-1.30;99.90
2453;DHT22;63678;47.994;7.854;2022-12-13T18:11:07;-1.40;99.90
2453;DHT22;63678;47.994;7.854;2022-12-13T18:14:00;-1.40;99.90
2453;DHT22;63678;47.994;7.854;2022-12-13T18:19:10;-1.40;99.90
2453;DHT22;63678;47.994;7.854;2022-12-13T18:21:44;-1.50;99.90
2453;DHT22;63678;47.994;7.854;2022-12-13T18:24:17;-1.60;99.90
2453;DHT22;63678;47.994;7.854;2022-12-13T18:26:49;-1.60;99.90
2453;DHT22;63678;47.994;7.854;2022-12-13T18:29:21;-1.60;99.90
2453;DHT22;63678;47.994;7.854;2022-12-13T18:31:54;-1.50;99.90
2453;DHT22;63678;47.994;7.854;2022-12-13T18:34:27;-1.50;99.90
2453;DHT22;63678;47.994;7.854;2022-12-13T18:36:59;-1.50;99.90
2453;DHT22;63678;47.994;7.854;2022-12-13T18:39:31;-1.50;99.90
2453;DHT22;63678;47.994;7.854;2022-12-13T18:42:05;-1.60;99.90
2453;DHT22;63678;47.994;7.854;2022-12-13T18:44:38;-1.70;99.90
2453;DHT22;63678;47.994;7.854;2022-12-13T18:47:10;-1.50;99.90
2453;DHT22;63678;47.994;7.854;2022-12-13T18:49:50;-1.50;99.90
2453;DHT22;63678;47.994;7.854;2022-12-13T18:52:26;-1.40;99.90
2453;DHT22;63678;47.994;7.854;2022-12-13T18:54:58;-1.40;99.90
2453;DHT22;63678;47.994;7.854;2022-12-13T18:57:30;-1.30;99.90
2453;DHT22;63678;47.994;7.854;2022-12-13T19:00:03;-1.30;99.90
2453;DHT22;63678;47.994;7.854;2022-12-13T19:02:36;-1.40;99.90
2453;DHT22;63678;47.994;7.854;2022-12-13T19:07:42;-1.50;99.90
2453;DHT22;63678;47.994;7.854;2022-12-13T19:10:14;-1.50;99.90
2453;DHT22;63678;47.994;7.854;2022-12-13T19:12:46;-1.40;99.90
2453;DHT22;63678;47.994;7.854;2022-12-13T19:15:18;-1.40;99.90
2453;DHT22;63678;47.994;7.854;2022-12-13T19:17:51;-1.40;99.90
2453;DHT22;63678;47.994;7.854;2022-12-13T19:20:23;-1.60;99.90
2453;DHT22;63678;47.994;7.854;2022-12-13T19:22:56;-1.50;99.90
2453;DHT22;63678;47.994;7.854;2022-12-13T19:25:28;-1.50;99.90
2453;DHT22;63678;47.994;7.854;2022-12-13T19:28:01;-1.50;99.90
2453;DHT22;63678;47.994;7.854;2022-12-13T19:30:33;-1.50;99.90
2453;DHT22;63678;47.994;7.854;2022-12-13T19:33:06;-1.50;99.90
2453;DHT22;63678;47.994;7.854;2022-12-13T19:35:41;-1.40;99.90
2453;DHT22;63678;47.994;7.854;2022-12-13T19:38:14;-1.60;99.90
2453;DHT22;63678;47.994;7.854;2022-12-13T19:40:46;-1.50;99.90
2453;DHT22;63678;47.994;7.854;2022-12-13T19:43:18;-1.50;99.90
2453;DHT22;63678;47.994;7.854;2022-12-13T19:45:52;-1.30;99.90
2453;DHT22;63678;47.994;7.854;2022-12-13T19:48:24;-1.60;99.90
2453;DHT22;63678;47.994;7.854;2022-12-13T19:50:58;-1.60;99.90